Capitol Logistics 363


KSEA
Seattle-Tacoma International Airport
Seattle, Washington, US
KAFW
Fort Worth Alliance Airport
Fort Worth, Texas, US

Activity Log

Date Flight Route Aircraft Duration
03/10/2020 CPX363 SUMMA2 BKE J163 HOVEL Q154 UKW MOTZA9 B763 3h 20m
02/16/2019 CPX363 SUMMA1 SUMMA J54 BKE J54 BOI J15 JNC ALS PNH MDANO WESAT2 B763 3h 12m
01/30/2019 CPX363 SUMMA1 BKE V4 HOVEL Q154 UKW MOTZA8 B763 3h 10m

Route Details

Aircraft Information
Primary: Boeing 767-300BDSF
Backup: Not Available
Route Data
Distance: 1428nm
Sched. Duration: 3h 10m
Avg. Duration: 3h 14m (+4m)
Times Flown: 3
Recm'd Route: SUMMA1 SUMMA J54 BKE J54 BOI J15 JNC ALS PNH MDANO WESAT2
Planned Altitude: 35,000ft
Origin Wx: KSEA 261253Z 02008KT 7SM -DZ FEW006 BKN010 OVC018 12/10 A3014 RMK AO2 DZB47 SLP211 P0000 T01170100
Dest. Wx: KAFW 261253Z 30006KT 10SM FEW040 BKN120 BKN190 OVC250 18/15 A2993 RMK AO2 PRESRR SLP116 T01780150 $
Notes:

Financial History
Total Freight: 312,248lbs
Average Load: 104,083lbs/flt
Fuel Used: 109,019lbs
Avg. Fuel Used: 36,340lbs/flt
Fuel Expense: $122,101
Avg. Fuel Expense: $40,700
Avg. Fuel Cost: $1.12/lbs
Total Gross Income: $415,503
Pilot Pay: $617
Total Expenses: $45,030
Total Revenue: $245,915
Average Revenue: $138,501.00